sensor_id;sensor_type;location;lat;lon;timestamp;P1;durP1;ratioP1;P2;durP2;ratioP2
1991;SDS011;997;48.448;8.924;2023-07-30T05:09:54;3.97;;;3.40;;
1991;SDS011;997;48.448;8.924;2023-07-30T05:12:21;3.07;;;2.50;;
1991;SDS011;997;48.448;8.924;2023-07-30T05:14:47;2.30;;;2.07;;
1991;SDS011;997;48.448;8.924;2023-07-30T05:17:12;2.67;;;2.47;;
1991;SDS011;997;48.448;8.924;2023-07-30T05:19:38;3.43;;;3.13;;
1991;SDS011;997;48.448;8.924;2023-07-30T05:22:04;4.00;;;3.37;;
1991;SDS011;997;48.448;8.924;2023-07-30T05:24:31;2.90;;;2.67;;
1991;SDS011;997;48.448;8.924;2023-07-30T05:26:56;2.67;;;2.47;;
1991;SDS011;997;48.448;8.924;2023-07-30T05:29:22;2.73;;;2.53;;
1991;SDS011;997;48.448;8.924;2023-07-30T05:31:48;2.90;;;2.70;;
1991;SDS011;997;48.448;8.924;2023-07-30T05:34:13;3.37;;;2.93;;
1991;SDS011;997;48.448;8.924;2023-07-30T05:36:39;2.97;;;2.77;;
1991;SDS011;997;48.448;8.924;2023-07-30T05:39:05;3.03;;;2.70;;
1991;SDS011;997;48.448;8.924;2023-07-30T05:41:30;3.83;;;3.43;;
1991;SDS011;997;48.448;8.924;2023-07-30T05:43:56;3.17;;;2.93;;
1991;SDS011;997;48.448;8.924;2023-07-30T05:46:22;2.40;;;2.20;;
1991;SDS011;997;48.448;8.924;2023-07-30T05:48:47;3.43;;;2.40;;
1991;SDS011;997;48.448;8.924;2023-07-30T05:51:13;2.70;;;2.50;;
1991;SDS011;997;48.448;8.924;2023-07-30T05:53:39;4.40;;;3.20;;
1991;SDS011;997;48.448;8.924;2023-07-30T05:56:04;2.57;;;2.40;;
1991;SDS011;997;48.448;8.924;2023-07-30T05:58:30;2.90;;;2.70;;
1991;SDS011;997;48.448;8.924;2023-07-30T06:00:56;3.03;;;2.83;;
1991;SDS011;997;48.448;8.924;2023-07-30T06:03:22;3.77;;;2.70;;
1991;SDS011;997;48.448;8.924;2023-07-30T06:05:48;2.63;;;2.43;;
1991;SDS011;997;48.448;8.924;2023-07-30T06:08:13;2.70;;;2.50;;
1991;SDS011;997;48.448;8.924;2023-07-30T06:10:39;3.83;;;3.43;;
1991;SDS011;997;48.448;8.924;2023-07-30T06:13:05;3.17;;;2.87;;
1991;SDS011;997;48.448;8.924;2023-07-30T06:15:32;2.73;;;2.53;;
1991;SDS011;997;48.448;8.924;2023-07-30T06:17:58;2.27;;;2.07;;
1991;SDS011;997;48.448;8.924;2023-07-30T06:20:25;4.13;;;3.00;;
1991;SDS011;997;48.448;8.924;2023-07-30T06:22:51;3.07;;;2.80;;
1991;SDS011;997;48.448;8.924;2023-07-30T06:25:16;2.67;;;2.47;;
1991;SDS011;997;48.448;8.924;2023-07-30T06:27:42;2.80;;;2.60;;
1991;SDS011;997;48.448;8.924;2023-07-30T06:30:07;2.93;;;2.73;;
1991;SDS011;997;48.448;8.924;2023-07-30T06:32:33;3.30;;;3.00;;
1991;SDS011;997;48.448;8.924;2023-07-30T06:34:59;2.20;;;2.00;;
1991;SDS011;997;48.448;8.924;2023-07-30T06:37:25;3.03;;;2.80;;
1991;SDS011;997;48.448;8.924;2023-07-30T06:39:50;2.57;;;2.37;;
1991;SDS011;997;48.448;8.924;2023-07-30T06:42:16;2.73;;;2.47;;
1991;SDS011;997;48.448;8.924;2023-07-30T06:44:42;2.50;;;2.30;;
1991;SDS011;997;48.448;8.924;2023-07-30T06:47:07;2.70;;;2.43;;
1991;SDS011;997;48.448;8.924;2023-07-30T06:49:33;3.53;;;3.07;;
1991;SDS011;997;48.448;8.924;2023-07-30T06:51:59;2.40;;;1.90;;
1991;SDS011;997;48.448;8.924;2023-07-30T06:54:25;2.60;;;2.40;;
1991;SDS011;997;48.448;8.924;2023-07-30T06:56:51;2.93;;;2.20;;
1991;SDS011;997;48.448;8.924;2023-07-30T06:59:16;2.10;;;2.00;;
1991;SDS011;997;48.448;8.924;2023-07-30T07:01:42;1.80;;;1.70;;
1991;SDS011;997;48.448;8.924;2023-07-30T07:04:07;2.17;;;2.03;;
1991;SDS011;997;48.448;8.924;2023-07-30T07:06:33;2.33;;;2.13;;
1991;SDS011;997;48.448;8.924;2023-07-30T07:09:00;2.50;;;2.30;;
1991;SDS011;997;48.448;8.924;2023-07-30T07:11:25;3.07;;;2.17;;
1991;SDS011;997;48.448;8.924;2023-07-30T07:13:51;2.80;;;2.60;;
1991;SDS011;997;48.448;8.924;2023-07-30T07:16:17;2.53;;;2.33;;
1991;SDS011;997;48.448;8.924;2023-07-30T07:18:42;2.33;;;2.17;;
1991;SDS011;997;48.448;8.924;2023-07-30T07:21:08;5.70;;;2.57;;
1991;SDS011;997;48.448;8.924;2023-07-30T07:23:35;2.47;;;2.27;;
1991;SDS011;997;48.448;8.924;2023-07-30T07:26:00;2.30;;;2.20;;
1991;SDS011;997;48.448;8.924;2023-07-30T07:28:26;5.07;;;2.83;;
1991;SDS011;997;48.448;8.924;2023-07-30T07:30:52;3.57;;;2.60;;
1991;SDS011;997;48.448;8.924;2023-07-30T07:33:17;2.90;;;2.50;;
1991;SDS011;997;48.448;8.924;2023-07-30T07:35:43;4.20;;;2.63;;
1991;SDS011;997;48.448;8.924;2023-07-30T07:38:12;2.87;;;2.07;;
1991;SDS011;997;48.448;8.924;2023-07-30T07:40:39;3.20;;;2.10;;
1991;SDS011;997;48.448;8.924;2023-07-30T07:43:05;1.70;;;1.60;;
1991;SDS011;997;48.448;8.924;2023-07-30T07:45:32;2.53;;;2.33;;
1991;SDS011;997;48.448;8.924;2023-07-30T07:47:57;2.20;;;2.10;;
1991;SDS011;997;48.448;8.924;2023-07-30T07:50:23;2.53;;;1.93;;
1991;SDS011;997;48.448;8.924;2023-07-30T07:52:52;2.13;;;2.03;;
1991;SDS011;997;48.448;8.924;2023-07-30T07:55:18;1.70;;;1.60;;
1991;SDS011;997;48.448;8.924;2023-07-30T07:57:44;2.40;;;2.20;;
1991;SDS011;997;48.448;8.924;2023-07-30T08:00:10;2.07;;;1.87;;
1991;SDS011;997;48.448;8.924;2023-07-30T08:02:37;1.87;;;1.77;;
1991;SDS011;997;48.448;8.924;2023-07-30T08:05:02;2.43;;;2.30;;
1991;SDS011;997;48.448;8.924;2023-07-30T08:07:28;2.80;;;2.03;;
1991;SDS011;997;48.448;8.924;2023-07-30T08:09:54;1.90;;;1.80;;
1991;SDS011;997;48.448;8.924;2023-07-30T08:12:20;3.97;;;2.43;;
1991;SDS011;997;48.448;8.924;2023-07-30T08:14:46;2.93;;;1.83;;
1991;SDS011;997;48.448;8.924;2023-07-30T08:17:12;2.17;;;1.97;;
1991;SDS011;997;48.448;8.924;2023-07-30T08:19:38;2.43;;;1.80;;
1991;SDS011;997;48.448;8.924;2023-07-30T08:22:03;2.80;;;1.97;;
1991;SDS011;997;48.448;8.924;2023-07-30T08:24:29;1.60;;;1.50;;
1991;SDS011;997;48.448;8.924;2023-07-30T08:26:54;2.40;;;2.00;;
1991;SDS011;997;48.448;8.924;2023-07-30T08:29:20;1.93;;;1.83;;
1991;SDS011;997;48.448;8.924;2023-07-30T08:31:46;2.83;;;2.33;;
1991;SDS011;997;48.448;8.924;2023-07-30T08:34:11;2.20;;;2.00;;
1991;SDS011;997;48.448;8.924;2023-07-30T08:36:38;2.57;;;2.37;;
1991;SDS011;997;48.448;8.924;2023-07-30T08:39:04;2.27;;;2.03;;
1991;SDS011;997;48.448;8.924;2023-07-30T08:41:29;2.90;;;2.17;;
1991;SDS011;997;48.448;8.924;2023-07-30T08:43:55;2.63;;;2.43;;
1991;SDS011;997;48.448;8.924;2023-07-30T08:46:21;3.37;;;2.10;;
1991;SDS011;997;48.448;8.924;2023-07-30T08:48:46;1.73;;;1.63;;
1991;SDS011;997;48.448;8.924;2023-07-30T08:51:12;1.73;;;1.63;;
1991;SDS011;997;48.448;8.924;2023-07-30T08:53:39;4.70;;;3.07;;
1991;SDS011;997;48.448;8.924;2023-07-30T08:56:05;2.70;;;1.73;;
1991;SDS011;997;48.448;8.924;2023-07-30T08:58:32;1.80;;;1.70;;
1991;SDS011;997;48.448;8.924;2023-07-30T09:00:59;2.13;;;2.03;;
1991;SDS011;997;48.448;8.924;2023-07-30T09:03:26;2.53;;;2.20;;
1991;SDS011;997;48.448;8.924;2023-07-30T09:05:54;2.80;;;2.60;;
1991;SDS011;997;48.448;8.924;2023-07-30T09:08:19;2.30;;;2.20;;
1991;SDS011;997;48.448;8.924;2023-07-30T09:10:47;2.00;;;1.83;;
1991;SDS011;997;48.448;8.924;2023-07-30T09:13:20;2.90;;;2.63;;
1991;SDS011;997;48.448;8.924;2023-07-30T09:15:48;2.67;;;2.47;;
1991;SDS011;997;48.448;8.924;2023-07-30T09:18:19;2.23;;;2.03;;
1991;SDS011;997;48.448;8.924;2023-07-30T09:21:06;2.27;;;2.07;;
1991;SDS011;997;48.448;8.924;2023-07-30T09:23:32;1.90;;;1.80;;
1991;SDS011;997;48.448;8.924;2023-07-30T09:26:05;2.53;;;1.73;;
1991;SDS011;997;48.448;8.924;2023-07-30T09:28:30;2.37;;;2.17;;
1991;SDS011;997;48.448;8.924;2023-07-30T09:31:06;2.03;;;1.87;;
1991;SDS011;997;48.448;8.924;2023-07-30T09:33:40;2.20;;;2.00;;
1991;SDS011;997;48.448;8.924;2023-07-30T09:36:07;1.97;;;1.87;;
1991;SDS011;997;48.448;8.924;2023-07-30T09:38:40;1.93;;;1.70;;
1991;SDS011;997;48.448;8.924;2023-07-30T09:41:07;2.77;;;2.57;;
1991;SDS011;997;48.448;8.924;2023-07-30T09:43:35;2.20;;;2.00;;
1991;SDS011;997;48.448;8.924;2023-07-30T09:46:01;2.13;;;1.97;;
1991;SDS011;997;48.448;8.924;2023-07-30T09:48:29;2.07;;;1.90;;
1991;SDS011;997;48.448;8.924;2023-07-30T09:50:58;2.70;;;2.50;;
1991;SDS011;997;48.448;8.924;2023-07-30T09:53:26;2.07;;;1.80;;
1991;SDS011;997;48.448;8.924;2023-07-30T09:55:54;2.60;;;2.23;;
1991;SDS011;997;48.448;8.924;2023-07-30T09:58:19;2.00;;;1.90;;
1991;SDS011;997;48.448;8.924;2023-07-30T10:00:45;2.70;;;1.77;;
1991;SDS011;997;48.448;8.924;2023-07-30T10:03:14;2.60;;;2.40;;
1991;SDS011;997;48.448;8.924;2023-07-30T10:05:41;2.97;;;2.60;;
1991;SDS011;997;48.448;8.924;2023-07-30T10:08:12;1.90;;;1.70;;
1991;SDS011;997;48.448;8.924;2023-07-30T10:10:44;2.13;;;1.93;;
1991;SDS011;997;48.448;8.924;2023-07-30T10:13:11;3.07;;;2.13;;
1991;SDS011;997;48.448;8.924;2023-07-30T10:15:38;2.10;;;2.00;;
1991;SDS011;997;48.448;8.924;2023-07-30T10:18:04;1.87;;;1.67;;
1991;SDS011;997;48.448;8.924;2023-07-30T10:20:30;3.20;;;2.20;;
1991;SDS011;997;48.448;8.924;2023-07-30T10:22:57;2.40;;;1.90;;
1991;SDS011;997;48.448;8.924;2023-07-30T10:25:42;1.83;;;1.73;;
1991;SDS011;997;48.448;8.924;2023-07-30T10:28:11;1.83;;;1.73;;
1991;SDS011;997;48.448;8.924;2023-07-30T10:30:57;2.00;;;1.90;;
1991;SDS011;997;48.448;8.924;2023-07-30T10:33:27;2.83;;;2.00;;
1991;SDS011;997;48.448;8.924;2023-07-30T10:36:08;2.30;;;2.00;;
1991;SDS011;997;48.448;8.924;2023-07-30T10:38:35;1.77;;;1.67;;
1991;SDS011;997;48.448;8.924;2023-07-30T10:43:46;2.23;;;2.13;;
1991;SDS011;997;48.448;8.924;2023-07-30T10:46:14;2.27;;;2.07;;
1991;SDS011;997;48.448;8.924;2023-07-30T10:48:42;2.03;;;1.93;;
1991;SDS011;997;48.448;8.924;2023-07-30T10:51:09;3.30;;;2.20;;
1991;SDS011;997;48.448;8.924;2023-07-30T10:53:37;1.80;;;1.70;;
1991;SDS011;997;48.448;8.924;2023-07-30T10:56:04;3.43;;;2.20;;
1991;SDS011;997;48.448;8.924;2023-07-30T10:58:32;1.70;;;1.60;;
1991;SDS011;997;48.448;8.924;2023-07-30T11:01:03;2.50;;;1.83;;
1991;SDS011;997;48.448;8.924;2023-07-30T11:03:31;1.90;;;1.80;;
1991;SDS011;997;48.448;8.924;2023-07-30T11:05:57;2.40;;;2.20;;
1991;SDS011;997;48.448;8.924;2023-07-30T11:55:04;1.80;;;1.70;;
1991;SDS011;997;48.448;8.924;2023-07-30T11:57:36;3.73;;;2.33;;
1991;SDS011;997;48.448;8.924;2023-07-30T12:00:02;2.03;;;1.93;;
1991;SDS011;997;48.448;8.924;2023-07-30T12:02:29;2.63;;;2.00;;
1991;SDS011;997;48.448;8.924;2023-07-30T12:04:54;3.17;;;2.17;;
1991;SDS011;997;48.448;8.924;2023-07-30T15:34:57;5.43;;;1.43;;
1991;SDS011;997;48.448;8.924;2023-07-30T15:37:23;1.40;;;1.30;;
1991;SDS011;997;48.448;8.924;2023-07-30T15:39:48;3.33;;;1.93;;
1991;SDS011;997;48.448;8.924;2023-07-30T15:42:14;1.83;;;1.73;;
1991;SDS011;997;48.448;8.924;2023-07-30T15:44:39;1.47;;;1.37;;
1991;SDS011;997;48.448;8.924;2023-07-30T15:47:05;1.83;;;1.30;;
1991;SDS011;997;48.448;8.924;2023-07-30T15:49:31;2.30;;;1.50;;
1991;SDS011;997;48.448;8.924;2023-07-30T15:51:58;1.73;;;1.57;;
1991;SDS011;997;48.448;8.924;2023-07-30T15:54:34;1.90;;;1.60;;
1991;SDS011;997;48.448;8.924;2023-07-30T15:57:01;3.63;;;1.53;;
1991;SDS011;997;48.448;8.924;2023-07-30T15:59:28;4.37;;;1.77;;
1991;SDS011;997;48.448;8.924;2023-07-30T16:01:53;1.90;;;1.70;;
1991;SDS011;997;48.448;8.924;2023-07-30T16:04:20;1.80;;;1.70;;
1991;SDS011;997;48.448;8.924;2023-07-30T16:06:46;2.50;;;1.90;;
1991;SDS011;997;48.448;8.924;2023-07-30T16:09:12;1.90;;;1.40;;
1991;SDS011;997;48.448;8.924;2023-07-30T16:11:37;2.17;;;1.70;;
1991;SDS011;997;48.448;8.924;2023-07-30T16:14:04;2.07;;;1.30;;
1991;SDS011;997;48.448;8.924;2023-07-30T16:16:29;2.97;;;1.40;;
1991;SDS011;997;48.448;8.924;2023-07-30T16:18:55;1.87;;;1.47;;
1991;SDS011;997;48.448;8.924;2023-07-30T16:21:22;1.47;;;1.30;;
1991;SDS011;997;48.448;8.924;2023-07-30T16:23:48;3.30;;;1.60;;
1991;SDS011;997;48.448;8.924;2023-07-30T16:26:14;1.30;;;1.20;;
1991;SDS011;997;48.448;8.924;2023-07-30T16:28:43;1.83;;;1.50;;
1991;SDS011;997;48.448;8.924;2023-07-30T16:31:09;1.70;;;1.60;;
1991;SDS011;997;48.448;8.924;2023-07-30T16:33:35;2.23;;;1.60;;
1991;SDS011;997;48.448;8.924;2023-07-30T16:36:01;1.60;;;1.50;;
1991;SDS011;997;48.448;8.924;2023-07-30T16:38:29;1.67;;;1.20;;
1991;SDS011;997;48.448;8.924;2023-07-30T16:40:55;1.37;;;1.23;;
1991;SDS011;997;48.448;8.924;2023-07-30T16:43:21;2.13;;;1.17;;
1991;SDS011;997;48.448;8.924;2023-07-30T16:45:47;2.73;;;1.40;;
1991;SDS011;997;48.448;8.924;2023-07-30T16:48:13;1.80;;;1.30;;
1991;SDS011;997;48.448;8.924;2023-07-30T16:50:43;1.73;;;1.47;;
1991;SDS011;997;48.448;8.924;2023-07-30T16:53:12;1.33;;;1.13;;
1991;SDS011;997;48.448;8.924;2023-07-30T16:55:38;1.77;;;1.57;;
1991;SDS011;997;48.448;8.924;2023-07-30T16:58:04;4.10;;;2.30;;
1991;SDS011;997;48.448;8.924;2023-07-30T17:00:30;2.70;;;1.33;;
1991;SDS011;997;48.448;8.924;2023-07-30T17:02:56;3.47;;;1.30;;
1991;SDS011;997;48.448;8.924;2023-07-30T17:05:23;1.93;;;1.40;;
1991;SDS011;997;48.448;8.924;2023-07-30T17:07:52;1.90;;;1.67;;
1991;SDS011;997;48.448;8.924;2023-07-30T17:10:18;1.70;;;1.23;;
1991;SDS011;997;48.448;8.924;2023-07-30T17:12:43;1.93;;;1.30;;
1991;SDS011;997;48.448;8.924;2023-07-30T17:15:09;1.90;;;1.20;;
1991;SDS011;997;48.448;8.924;2023-07-30T17:17:36;3.17;;;1.63;;
1991;SDS011;997;48.448;8.924;2023-07-30T17:20:01;1.50;;;1.10;;
1991;SDS011;997;48.448;8.924;2023-07-30T17:22:28;1.93;;;1.53;;
1991;SDS011;997;48.448;8.924;2023-07-30T17:24:59;1.60;;;1.27;;
1991;SDS011;997;48.448;8.924;2023-07-30T17:27:25;5.03;;;1.73;;
1991;SDS011;997;48.448;8.924;2023-07-30T17:29:51;2.00;;;1.53;;
1991;SDS011;997;48.448;8.924;2023-07-30T17:32:20;1.93;;;1.43;;
1991;SDS011;997;48.448;8.924;2023-07-30T17:34:46;2.70;;;1.77;;
1991;SDS011;997;48.448;8.924;2023-07-30T17:37:12;3.00;;;1.30;;
1991;SDS011;997;48.448;8.924;2023-07-30T17:39:38;2.10;;;1.20;;
1991;SDS011;997;48.448;8.924;2023-07-30T17:42:04;5.53;;;1.40;;
1991;SDS011;997;48.448;8.924;2023-07-30T17:44:30;2.00;;;1.20;;
1991;SDS011;997;48.448;8.924;2023-07-30T17:46:57;3.40;;;1.70;;
1991;SDS011;997;48.448;8.924;2023-07-30T17:49:22;1.60;;;1.50;;
1991;SDS011;997;48.448;8.924;2023-07-30T17:51:51;1.60;;;1.50;;
1991;SDS011;997;48.448;8.924;2023-07-30T17:54:17;2.90;;;1.60;;
1991;SDS011;997;48.448;8.924;2023-07-30T17:56:43;2.17;;;1.80;;
1991;SDS011;997;48.448;8.924;2023-07-30T17:59:08;1.90;;;1.43;;
1991;SDS011;997;48.448;8.924;2023-07-30T18:01:35;1.53;;;1.43;;
1991;SDS011;997;48.448;8.924;2023-07-30T18:04:01;1.37;;;1.27;;
1991;SDS011;997;48.448;8.924;2023-07-30T18:06:27;2.00;;;1.60;;
1991;SDS011;997;48.448;8.924;2023-07-30T18:08:52;3.17;;;2.27;;
1991;SDS011;997;48.448;8.924;2023-07-30T18:11:18;1.23;;;1.00;;
1991;SDS011;997;48.448;8.924;2023-07-30T18:13:44;4.90;;;1.67;;
1991;SDS011;997;48.448;8.924;2023-07-30T18:16:10;3.37;;;1.80;;
1991;SDS011;997;48.448;8.924;2023-07-30T18:18:36;4.20;;;1.47;;
1991;SDS011;997;48.448;8.924;2023-07-30T18:21:01;2.63;;;1.50;;
1991;SDS011;997;48.448;8.924;2023-07-30T18:23:27;1.13;;;1.07;;
1991;SDS011;997;48.448;8.924;2023-07-30T18:25:53;1.70;;;1.30;;
1991;SDS011;997;48.448;8.924;2023-07-30T18:28:19;1.70;;;1.60;;
1991;SDS011;997;48.448;8.924;2023-07-30T18:30:44;2.63;;;1.50;;
1991;SDS011;997;48.448;8.924;2023-07-30T18:33:10;2.30;;;1.53;;
1991;SDS011;997;48.448;8.924;2023-07-30T18:35:36;2.37;;;1.17;;
1991;SDS011;997;48.448;8.924;2023-07-30T18:38:02;3.30;;;1.67;;
1991;SDS011;997;48.448;8.924;2023-07-30T18:40:27;4.17;;;1.43;;
1991;SDS011;997;48.448;8.924;2023-07-30T18:42:53;1.83;;;1.47;;
1991;SDS011;997;48.448;8.924;2023-07-30T18:45:19;2.53;;;1.70;;
1991;SDS011;997;48.448;8.924;2023-07-30T18:47:44;3.03;;;1.43;;
1991;SDS011;997;48.448;8.924;2023-07-30T18:50:10;4.30;;;1.73;;
1991;SDS011;997;48.448;8.924;2023-07-30T18:52:36;4.90;;;2.13;;
1991;SDS011;997;48.448;8.924;2023-07-30T18:55:02;2.00;;;1.90;;
1991;SDS011;997;48.448;8.924;2023-07-30T18:57:28;2.17;;;1.77;;
1991;SDS011;997;48.448;8.924;2023-07-30T18:59:54;2.50;;;1.20;;
1991;SDS011;997;48.448;8.924;2023-07-30T19:02:19;3.00;;;2.13;;
1991;SDS011;997;48.448;8.924;2023-07-30T19:04:45;3.07;;;1.53;;
1991;SDS011;997;48.448;8.924;2023-07-30T19:07:11;2.03;;;1.33;;
1991;SDS011;997;48.448;8.924;2023-07-30T19:09:37;2.83;;;1.73;;
1991;SDS011;997;48.448;8.924;2023-07-30T19:12:02;1.90;;;1.70;;
1991;SDS011;997;48.448;8.924;2023-07-30T19:14:28;1.37;;;1.27;;
1991;SDS011;997;48.448;8.924;2023-07-30T19:16:54;1.27;;;1.17;;
1991;SDS011;997;48.448;8.924;2023-07-30T19:19:20;2.57;;;1.60;;
1991;SDS011;997;48.448;8.924;2023-07-30T19:21:45;3.43;;;1.50;;
1991;SDS011;997;48.448;8.924;2023-07-30T19:24:11;1.70;;;1.50;;
1991;SDS011;997;48.448;8.924;2023-07-30T19:26:37;6.20;;;1.70;;
1991;SDS011;997;48.448;8.924;2023-07-30T19:29:06;2.10;;;1.40;;
1991;SDS011;997;48.448;8.924;2023-07-30T19:31:32;3.13;;;1.33;;
1991;SDS011;997;48.448;8.924;2023-07-30T19:34:08;2.50;;;1.73;;
1991;SDS011;997;48.448;8.924;2023-07-30T19:36:35;2.80;;;2.50;;
1991;SDS011;997;48.448;8.924;2023-07-30T19:39:02;4.70;;;2.27;;
1991;SDS011;997;48.448;8.924;2023-07-30T19:41:28;2.83;;;1.60;;
1991;SDS011;997;48.448;8.924;2023-07-30T19:43:54;4.73;;;1.87;;
1991;SDS011;997;48.448;8.924;2023-07-30T19:46:20;3.17;;;2.30;;
1991;SDS011;997;48.448;8.924;2023-07-30T19:48:45;2.83;;;2.50;;
1991;SDS011;997;48.448;8.924;2023-07-30T19:51:12;3.27;;;2.07;;
1991;SDS011;997;48.448;8.924;2023-07-30T19:53:38;2.50;;;1.80;;
1991;SDS011;997;48.448;8.924;2023-07-30T19:56:04;3.43;;;1.77;;
1991;SDS011;997;48.448;8.924;2023-07-30T19:58:31;1.40;;;1.30;;
1991;SDS011;997;48.448;8.924;2023-07-30T20:00:58;3.20;;;1.77;;
1991;SDS011;997;48.448;8.924;2023-07-30T20:03:26;3.33;;;1.67;;
1991;SDS011;997;48.448;8.924;2023-07-30T20:06:02;2.90;;;1.87;;
1991;SDS011;997;48.448;8.924;2023-07-30T20:08:32;2.90;;;1.60;;
1991;SDS011;997;48.448;8.924;2023-07-30T20:10:59;3.20;;;2.17;;
1991;SDS011;997;48.448;8.924;2023-07-30T20:13:26;2.30;;;1.97;;
1991;SDS011;997;48.448;8.924;2023-07-30T20:15:53;5.87;;;2.47;;
1991;SDS011;997;48.448;8.924;2023-07-30T20:18:20;1.73;;;1.63;;
1991;SDS011;997;48.448;8.924;2023-07-30T20:20:46;3.90;;;2.13;;
1991;SDS011;997;48.448;8.924;2023-07-30T20:23:12;2.47;;;1.73;;
1991;SDS011;997;48.448;8.924;2023-07-30T20:25:38;3.27;;;2.10;;
1991;SDS011;997;48.448;8.924;2023-07-30T20:28:04;2.60;;;1.60;;
1991;SDS011;997;48.448;8.924;2023-07-30T20:30:31;2.77;;;2.33;;
1991;SDS011;997;48.448;8.924;2023-07-30T20:32:58;2.10;;;1.67;;
1991;SDS011;997;48.448;8.924;2023-07-30T20:35:24;3.73;;;2.10;;
1991;SDS011;997;48.448;8.924;2023-07-30T20:37:52;2.10;;;1.90;;
1991;SDS011;997;48.448;8.924;2023-07-30T20:40:25;2.87;;;1.60;;
1991;SDS011;997;48.448;8.924;2023-07-30T20:42:52;3.20;;;2.37;;
1991;SDS011;997;48.448;8.924;2023-07-30T20:45:18;5.70;;;2.70;;
1991;SDS011;997;48.448;8.924;2023-07-30T20:47:45;2.37;;;1.70;;
1991;SDS011;997;48.448;8.924;2023-07-30T20:50:15;1.73;;;1.40;;
1991;SDS011;997;48.448;8.924;2023-07-30T20:52:42;2.60;;;1.70;;
1991;SDS011;997;48.448;8.924;2023-07-30T20:55:10;2.13;;;1.33;;
1991;SDS011;997;48.448;8.924;2023-07-30T20:57:40;2.30;;;1.60;;
1991;SDS011;997;48.448;8.924;2023-07-30T21:00:06;2.80;;;1.60;;
1991;SDS011;997;48.448;8.924;2023-07-30T21:02:33;4.20;;;1.83;;
1991;SDS011;997;48.448;8.924;2023-07-30T21:04:59;2.67;;;2.40;;
1991;SDS011;997;48.448;8.924;2023-07-30T21:07:24;1.73;;;1.63;;
1991;SDS011;997;48.448;8.924;2023-07-30T21:09:50;2.53;;;1.90;;
1991;SDS011;997;48.448;8.924;2023-07-30T21:12:17;2.80;;;1.43;;
1991;SDS011;997;48.448;8.924;2023-07-30T21:14:44;4.10;;;2.43;;
1991;SDS011;997;48.448;8.924;2023-07-30T21:17:09;2.07;;;1.87;;
1991;SDS011;997;48.448;8.924;2023-07-30T21:19:35;4.40;;;2.77;;
1991;SDS011;997;48.448;8.924;2023-07-30T21:22:02;1.83;;;1.73;;
1991;SDS011;997;48.448;8.924;2023-07-30T21:24:40;3.57;;;2.73;;
1991;SDS011;997;48.448;8.924;2023-07-30T21:27:06;6.70;;;1.93;;
1991;SDS011;997;48.448;8.924;2023-07-30T21:29:32;3.83;;;1.93;;
